sensor_id;sensor_type;location;lat;lon;timestamp;P1;durP1;ratioP1;P2;durP2;ratioP2
68178;SDS011;69812;42.632;23.440;2024-01-07T00:00:47;12.63;;;6.82;;
68178;SDS011;69812;42.632;23.440;2024-01-07T00:03:12;10.52;;;6.38;;
68178;SDS011;69812;42.632;23.440;2024-01-07T00:05:38;14.52;;;7.40;;
68178;SDS011;69812;42.632;23.440;2024-01-07T00:08:03;15.68;;;6.72;;
68178;SDS011;69812;42.632;23.440;2024-01-07T00:10:29;11.98;;;5.70;;
68178;SDS011;69812;42.632;23.440;2024-01-07T00:12:54;11.90;;;6.18;;
68178;SDS011;69812;42.632;23.440;2024-01-07T00:15:19;15.27;;;7.38;;
68178;SDS011;69812;42.632;23.440;2024-01-07T00:17:45;13.43;;;6.60;;
68178;SDS011;69812;42.632;23.440;2024-01-07T00:20:10;13.73;;;7.43;;
68178;SDS011;69812;42.632;23.440;2024-01-07T00:22:36;15.45;;;7.05;;
68178;SDS011;69812;42.632;23.440;2024-01-07T00:25:01;13.38;;;5.93;;
68178;SDS011;69812;42.632;23.440;2024-01-07T00:27:29;12.77;;;6.60;;
68178;SDS011;69812;42.632;23.440;2024-01-07T00:29:54;10.57;;;6.28;;
68178;SDS011;69812;42.632;23.440;2024-01-07T00:32:20;14.52;;;6.88;;
68178;SDS011;69812;42.632;23.440;2024-01-07T00:34:45;10.57;;;6.13;;
68178;SDS011;69812;42.632;23.440;2024-01-07T00:37:11;17.17;;;9.57;;
68178;SDS011;69812;42.632;23.440;2024-01-07T00:39:36;13.77;;;6.97;;
68178;SDS011;69812;42.632;23.440;2024-01-07T00:42:01;11.68;;;6.38;;
68178;SDS011;69812;42.632;23.440;2024-01-07T00:44:27;14.82;;;6.78;;
68178;SDS011;69812;42.632;23.440;2024-01-07T00:46:52;13.65;;;6.50;;
68178;SDS011;69812;42.632;23.440;2024-01-07T00:49:18;14.93;;;7.97;;
68178;SDS011;69812;42.632;23.440;2024-01-07T00:51:43;15.50;;;7.72;;
68178;SDS011;69812;42.632;23.440;2024-01-07T00:54:09;14.70;;;6.93;;
68178;SDS011;69812;42.632;23.440;2024-01-07T00:56:34;12.95;;;6.22;;
68178;SDS011;69812;42.632;23.440;2024-01-07T00:58:59;17.23;;;9.07;;
68178;SDS011;69812;42.632;23.440;2024-01-07T01:01:25;14.98;;;7.47;;
68178;SDS011;69812;42.632;23.440;2024-01-07T01:03:50;18.20;;;8.20;;
68178;SDS011;69812;42.632;23.440;2024-01-07T01:06:15;18.55;;;7.80;;
68178;SDS011;69812;42.632;23.440;2024-01-07T01:08:41;12.75;;;7.00;;
68178;SDS011;69812;42.632;23.440;2024-01-07T01:11:08;19.83;;;9.32;;
68178;SDS011;69812;42.632;23.440;2024-01-07T01:13:35;19.17;;;8.35;;
68178;SDS011;69812;42.632;23.440;2024-01-07T01:16:00;24.20;;;12.07;;
68178;SDS011;69812;42.632;23.440;2024-01-07T01:18:25;22.77;;;10.85;;
68178;SDS011;69812;42.632;23.440;2024-01-07T01:20:51;23.70;;;10.30;;
68178;SDS011;69812;42.632;23.440;2024-01-07T01:23:16;22.10;;;11.25;;
68178;SDS011;69812;42.632;23.440;2024-01-07T01:25:41;17.45;;;8.73;;
68178;SDS011;69812;42.632;23.440;2024-01-07T01:28:07;22.15;;;10.27;;
68178;SDS011;69812;42.632;23.440;2024-01-07T01:30:34;23.63;;;11.57;;
68178;SDS011;69812;42.632;23.440;2024-01-07T01:33:00;25.25;;;11.15;;
68178;SDS011;69812;42.632;23.440;2024-01-07T01:35:26;24.00;;;11.77;;
68178;SDS011;69812;42.632;23.440;2024-01-07T01:37:52;22.27;;;10.30;;
68178;SDS011;69812;42.632;23.440;2024-01-07T01:40:19;22.73;;;11.18;;
68178;SDS011;69812;42.632;23.440;2024-01-07T01:42:45;24.80;;;11.77;;
68178;SDS011;69812;42.632;23.440;2024-01-07T01:45:13;20.25;;;10.82;;
68178;SDS011;69812;42.632;23.440;2024-01-07T01:47:39;26.20;;;12.35;;
68178;SDS011;69812;42.632;23.440;2024-01-07T01:50:05;25.42;;;12.18;;
68178;SDS011;69812;42.632;23.440;2024-01-07T01:52:31;21.83;;;10.73;;
68178;SDS011;69812;42.632;23.440;2024-01-07T01:54:56;23.42;;;11.52;;
68178;SDS011;69812;42.632;23.440;2024-01-07T01:57:24;24.85;;;11.00;;
68178;SDS011;69812;42.632;23.440;2024-01-07T01:59:57;20.27;;;10.82;;
68178;SDS011;69812;42.632;23.440;2024-01-07T02:02:28;24.15;;;11.38;;
68178;SDS011;69812;42.632;23.440;2024-01-07T02:04:55;20.27;;;10.30;;
68178;SDS011;69812;42.632;23.440;2024-01-07T02:07:21;22.65;;;11.77;;
68178;SDS011;69812;42.632;23.440;2024-01-07T02:09:47;21.27;;;10.50;;
68178;SDS011;69812;42.632;23.440;2024-01-07T02:12:12;19.25;;;10.07;;
68178;SDS011;69812;42.632;23.440;2024-01-07T02:14:38;18.17;;;10.23;;
68178;SDS011;69812;42.632;23.440;2024-01-07T02:17:04;22.10;;;10.60;;
68178;SDS011;69812;42.632;23.440;2024-01-07T02:19:30;19.02;;;8.75;;
68178;SDS011;69812;42.632;23.440;2024-01-07T02:21:55;22.65;;;11.57;;
68178;SDS011;69812;42.632;23.440;2024-01-07T02:24:21;19.63;;;9.40;;
68178;SDS011;69812;42.632;23.440;2024-01-07T02:26:46;18.95;;;9.32;;
68178;SDS011;69812;42.632;23.440;2024-01-07T02:29:11;18.45;;;10.07;;
68178;SDS011;69812;42.632;23.440;2024-01-07T02:31:37;22.77;;;11.10;;
68178;SDS011;69812;42.632;23.440;2024-01-07T02:34:02;24.15;;;11.38;;
68178;SDS011;69812;42.632;23.440;2024-01-07T02:36:28;20.65;;;10.23;;
68178;SDS011;69812;42.632;23.440;2024-01-07T02:38:53;19.25;;;10.25;;
68178;SDS011;69812;42.632;23.440;2024-01-07T02:41:18;23.40;;;11.25;;
68178;SDS011;69812;42.632;23.440;2024-01-07T02:43:45;23.55;;;11.50;;
68178;SDS011;69812;42.632;23.440;2024-01-07T02:46:10;17.33;;;9.55;;
68178;SDS011;69812;42.632;23.440;2024-01-07T02:48:36;19.63;;;9.27;;
68178;SDS011;69812;42.632;23.440;2024-01-07T02:51:01;26.05;;;12.25;;
68178;SDS011;69812;42.632;23.440;2024-01-07T02:53:28;25.70;;;11.35;;
68178;SDS011;69812;42.632;23.440;2024-01-07T02:55:54;23.48;;;12.75;;
68178;SDS011;69812;42.632;23.440;2024-01-07T02:58:19;19.75;;;10.88;;
68178;SDS011;69812;42.632;23.440;2024-01-07T03:00:44;20.80;;;9.90;;
68178;SDS011;69812;42.632;23.440;2024-01-07T03:03:10;27.13;;;13.88;;
68178;SDS011;69812;42.632;23.440;2024-01-07T03:05:35;25.00;;;12.10;;
68178;SDS011;69812;42.632;23.440;2024-01-07T03:08:00;24.52;;;12.02;;
68178;SDS011;69812;42.632;23.440;2024-01-07T03:10:26;19.92;;;9.30;;
68178;SDS011;69812;42.632;23.440;2024-01-07T03:12:51;18.10;;;7.93;;
68178;SDS011;69812;42.632;23.440;2024-01-07T03:15:17;15.88;;;9.13;;
68178;SDS011;69812;42.632;23.440;2024-01-07T03:17:42;17.23;;;9.40;;
68178;SDS011;69812;42.632;23.440;2024-01-07T03:20:08;15.70;;;9.38;;
68178;SDS011;69812;42.632;23.440;2024-01-07T03:22:34;27.15;;;13.50;;
68178;SDS011;69812;42.632;23.440;2024-01-07T03:24:59;21.48;;;10.38;;
68178;SDS011;69812;42.632;23.440;2024-01-07T03:27:25;13.23;;;7.15;;
68178;SDS011;69812;42.632;23.440;2024-01-07T03:29:50;18.90;;;8.15;;
68178;SDS011;69812;42.632;23.440;2024-01-07T03:32:16;16.02;;;7.88;;
68178;SDS011;69812;42.632;23.440;2024-01-07T03:34:42;15.88;;;8.77;;
68178;SDS011;69812;42.632;23.440;2024-01-07T03:37:08;15.52;;;8.52;;
68178;SDS011;69812;42.632;23.440;2024-01-07T03:39:33;16.55;;;9.73;;
68178;SDS011;69812;42.632;23.440;2024-01-07T03:41:58;18.40;;;8.88;;
68178;SDS011;69812;42.632;23.440;2024-01-07T03:44:24;19.30;;;9.38;;
68178;SDS011;69812;42.632;23.440;2024-01-07T03:46:49;12.75;;;7.32;;
68178;SDS011;69812;42.632;23.440;2024-01-07T03:49:16;16.70;;;7.50;;
68178;SDS011;69812;42.632;23.440;2024-01-07T03:51:43;13.02;;;7.13;;
68178;SDS011;69812;42.632;23.440;2024-01-07T03:54:10;13.20;;;6.63;;
68178;SDS011;69812;42.632;23.440;2024-01-07T03:56:36;15.30;;;7.47;;
68178;SDS011;69812;42.632;23.440;2024-01-07T03:59:01;10.60;;;5.88;;
68178;SDS011;69812;42.632;23.440;2024-01-07T04:01:27;10.38;;;5.40;;
68178;SDS011;69812;42.632;23.440;2024-01-07T04:03:52;11.77;;;5.95;;
68178;SDS011;69812;42.632;23.440;2024-01-07T04:06:18;13.05;;;6.05;;
68178;SDS011;69812;42.632;23.440;2024-01-07T04:08:43;11.02;;;6.70;;
68178;SDS011;69812;42.632;23.440;2024-01-07T04:11:08;9.57;;;4.82;;
68178;SDS011;69812;42.632;23.440;2024-01-07T04:13:34;9.43;;;5.30;;
68178;SDS011;69812;42.632;23.440;2024-01-07T04:15:59;8.25;;;4.35;;
68178;SDS011;69812;42.632;23.440;2024-01-07T04:18:24;7.93;;;4.07;;
68178;SDS011;69812;42.632;23.440;2024-01-07T04:20:50;7.80;;;4.72;;
68178;SDS011;69812;42.632;23.440;2024-01-07T04:23:15;7.85;;;4.63;;
68178;SDS011;69812;42.632;23.440;2024-01-07T04:25:41;10.18;;;5.25;;
68178;SDS011;69812;42.632;23.440;2024-01-07T04:28:07;15.48;;;8.20;;
68178;SDS011;69812;42.632;23.440;2024-01-07T04:30:32;25.17;;;13.18;;
68178;SDS011;69812;42.632;23.440;2024-01-07T04:32:58;30.02;;;13.27;;
68178;SDS011;69812;42.632;23.440;2024-01-07T04:35:23;28.85;;;13.82;;
68178;SDS011;69812;42.632;23.440;2024-01-07T04:37:49;22.63;;;12.52;;
68178;SDS011;69812;42.632;23.440;2024-01-07T04:40:14;28.15;;;12.90;;
68178;SDS011;69812;42.632;23.440;2024-01-07T04:42:40;24.17;;;12.55;;
68178;SDS011;69812;42.632;23.440;2024-01-07T04:45:05;31.63;;;14.55;;
68178;SDS011;69812;42.632;23.440;2024-01-07T04:47:31;27.58;;;13.75;;
68178;SDS011;69812;42.632;23.440;2024-01-07T04:50:01;30.27;;;14.50;;
68178;SDS011;69812;42.632;23.440;2024-01-07T04:52:28;29.23;;;14.65;;
68178;SDS011;69812;42.632;23.440;2024-01-07T04:54:54;33.05;;;14.43;;
68178;SDS011;69812;42.632;23.440;2024-01-07T04:57:20;28.85;;;13.93;;
68178;SDS011;69812;42.632;23.440;2024-01-07T04:59:46;27.70;;;14.27;;
68178;SDS011;69812;42.632;23.440;2024-01-07T05:02:12;26.40;;;12.77;;
68178;SDS011;69812;42.632;23.440;2024-01-07T05:04:38;28.58;;;13.48;;
68178;SDS011;69812;42.632;23.440;2024-01-07T05:07:03;27.17;;;13.82;;
68178;SDS011;69812;42.632;23.440;2024-01-07T05:09:29;26.30;;;13.93;;
68178;SDS011;69812;42.632;23.440;2024-01-07T05:11:54;30.38;;;14.02;;
68178;SDS011;69812;42.632;23.440;2024-01-07T05:14:20;32.53;;;14.30;;
68178;SDS011;69812;42.632;23.440;2024-01-07T05:16:45;31.05;;;14.48;;
68178;SDS011;69812;42.632;23.440;2024-01-07T05:19:10;32.50;;;13.35;;
68178;SDS011;69812;42.632;23.440;2024-01-07T05:21:36;31.92;;;14.80;;
68178;SDS011;69812;42.632;23.440;2024-01-07T05:24:02;29.88;;;14.75;;
68178;SDS011;69812;42.632;23.440;2024-01-07T05:26:27;29.98;;;15.55;;
68178;SDS011;69812;42.632;23.440;2024-01-07T05:28:53;25.58;;;12.40;;
68178;SDS011;69812;42.632;23.440;2024-01-07T05:31:18;26.25;;;12.95;;
68178;SDS011;69812;42.632;23.440;2024-01-07T05:33:44;27.88;;;13.30;;
68178;SDS011;69812;42.632;23.440;2024-01-07T05:36:13;32.85;;;15.68;;
68178;SDS011;69812;42.632;23.440;2024-01-07T05:38:41;34.42;;;15.48;;
68178;SDS011;69812;42.632;23.440;2024-01-07T05:41:07;29.48;;;15.93;;
68178;SDS011;69812;42.632;23.440;2024-01-07T05:43:32;25.77;;;13.73;;
68178;SDS011;69812;42.632;23.440;2024-01-07T05:45:58;31.05;;;15.23;;
68178;SDS011;69812;42.632;23.440;2024-01-07T05:48:23;39.13;;;16.38;;
68178;SDS011;69812;42.632;23.440;2024-01-07T05:50:49;31.58;;;15.68;;
68178;SDS011;69812;42.632;23.440;2024-01-07T05:53:15;26.83;;;13.48;;
68178;SDS011;69812;42.632;23.440;2024-01-07T05:55:42;28.10;;;13.52;;
68178;SDS011;69812;42.632;23.440;2024-01-07T05:58:07;31.30;;;14.40;;
68178;SDS011;69812;42.632;23.440;2024-01-07T06:00:33;32.53;;;15.57;;
68178;SDS011;69812;42.632;23.440;2024-01-07T06:02:59;29.70;;;15.20;;
68178;SDS011;69812;42.632;23.440;2024-01-07T06:05:24;29.40;;;13.45;;
68178;SDS011;69812;42.632;23.440;2024-01-07T06:07:49;28.38;;;14.43;;
68178;SDS011;69812;42.632;23.440;2024-01-07T06:10:15;30.30;;;15.10;;
68178;SDS011;69812;42.632;23.440;2024-01-07T06:12:40;33.25;;;16.60;;
68178;SDS011;69812;42.632;23.440;2024-01-07T06:15:06;39.13;;;22.33;;
68178;SDS011;69812;42.632;23.440;2024-01-07T06:17:31;32.45;;;15.85;;
68178;SDS011;69812;42.632;23.440;2024-01-07T06:19:57;31.45;;;15.50;;
68178;SDS011;69812;42.632;23.440;2024-01-07T06:22:22;29.50;;;15.20;;
68178;SDS011;69812;42.632;23.440;2024-01-07T06:24:48;31.75;;;15.55;;
68178;SDS011;69812;42.632;23.440;2024-01-07T06:27:13;30.95;;;15.13;;
68178;SDS011;69812;42.632;23.440;2024-01-07T06:29:39;31.10;;;15.60;;
68178;SDS011;69812;42.632;23.440;2024-01-07T06:32:04;35.10;;;17.88;;
68178;SDS011;69812;42.632;23.440;2024-01-07T06:34:30;34.85;;;15.75;;
68178;SDS011;69812;42.632;23.440;2024-01-07T06:36:55;35.15;;;16.48;;
68178;SDS011;69812;42.632;23.440;2024-01-07T06:39:21;50.20;;;23.38;;
68178;SDS011;69812;42.632;23.440;2024-01-07T06:41:46;42.72;;;20.48;;
68178;SDS011;69812;42.632;23.440;2024-01-07T06:44:11;48.85;;;24.75;;
68178;SDS011;69812;42.632;23.440;2024-01-07T06:46:37;38.38;;;17.35;;
68178;SDS011;69812;42.632;23.440;2024-01-07T06:49:02;37.45;;;18.60;;
68178;SDS011;69812;42.632;23.440;2024-01-07T06:51:28;42.22;;;20.00;;
68178;SDS011;69812;42.632;23.440;2024-01-07T06:53:53;36.22;;;16.05;;
68178;SDS011;69812;42.632;23.440;2024-01-07T06:56:18;38.22;;;18.48;;
68178;SDS011;69812;42.632;23.440;2024-01-07T06:58:44;37.30;;;17.95;;
68178;SDS011;69812;42.632;23.440;2024-01-07T07:01:10;35.95;;;19.15;;
68178;SDS011;69812;42.632;23.440;2024-01-07T07:03:36;32.15;;;17.27;;
68178;SDS011;69812;42.632;23.440;2024-01-07T07:06:02;34.90;;;17.27;;
68178;SDS011;69812;42.632;23.440;2024-01-07T07:08:27;33.58;;;17.05;;
68178;SDS011;69812;42.632;23.440;2024-01-07T07:10:53;46.45;;;23.92;;
68178;SDS011;69812;42.632;23.440;2024-01-07T07:13:18;36.88;;;19.63;;
68178;SDS011;69812;42.632;23.440;2024-01-07T07:15:43;43.22;;;21.35;;
68178;SDS011;69812;42.632;23.440;2024-01-07T07:18:09;54.10;;;26.75;;
68178;SDS011;69812;42.632;23.440;2024-01-07T07:20:34;44.90;;;23.27;;
68178;SDS011;69812;42.632;23.440;2024-01-07T07:22:59;47.75;;;23.17;;
68178;SDS011;69812;42.632;23.440;2024-01-07T07:25:25;35.85;;;17.65;;
68178;SDS011;69812;42.632;23.440;2024-01-07T07:27:53;36.22;;;19.35;;
68178;SDS011;69812;42.632;23.440;2024-01-07T07:30:18;36.25;;;17.65;;
68178;SDS011;69812;42.632;23.440;2024-01-07T07:32:43;32.20;;;16.15;;
68178;SDS011;69812;42.632;23.440;2024-01-07T07:35:09;32.72;;;16.73;;
68178;SDS011;69812;42.632;23.440;2024-01-07T07:37:35;32.08;;;15.45;;
68178;SDS011;69812;42.632;23.440;2024-01-07T07:40:00;30.73;;;15.88;;
68178;SDS011;69812;42.632;23.440;2024-01-07T07:42:26;30.83;;;16.35;;
68178;SDS011;69812;42.632;23.440;2024-01-07T07:44:51;30.80;;;15.13;;
68178;SDS011;69812;42.632;23.440;2024-01-07T07:47:16;28.42;;;15.30;;
68178;SDS011;69812;42.632;23.440;2024-01-07T07:49:42;28.73;;;14.43;;
68178;SDS011;69812;42.632;23.440;2024-01-07T07:52:08;25.75;;;13.95;;
68178;SDS011;69812;42.632;23.440;2024-01-07T07:54:39;25.98;;;14.40;;
68178;SDS011;69812;42.632;23.440;2024-01-07T07:57:04;26.65;;;15.07;;
68178;SDS011;69812;42.632;23.440;2024-01-07T07:59:30;22.38;;;12.13;;
68178;SDS011;69812;42.632;23.440;2024-01-07T08:01:55;26.33;;;14.02;;
68178;SDS011;69812;42.632;23.440;2024-01-07T08:04:21;19.52;;;11.00;;
68178;SDS011;69812;42.632;23.440;2024-01-07T08:06:46;17.42;;;9.50;;
68178;SDS011;69812;42.632;23.440;2024-01-07T08:09:11;21.33;;;10.02;;
68178;SDS011;69812;42.632;23.440;2024-01-07T08:11:37;19.88;;;10.57;;
68178;SDS011;69812;42.632;23.440;2024-01-07T08:14:02;19.27;;;11.13;;
68178;SDS011;69812;42.632;23.440;2024-01-07T08:16:28;16.35;;;9.32;;
68178;SDS011;69812;42.632;23.440;2024-01-07T08:18:56;15.93;;;9.13;;
68178;SDS011;69812;42.632;23.440;2024-01-07T08:21:22;15.05;;;7.90;;
68178;SDS011;69812;42.632;23.440;2024-01-07T08:23:48;13.93;;;8.65;;
68178;SDS011;69812;42.632;23.440;2024-01-07T08:26:18;18.75;;;9.35;;
68178;SDS011;69812;42.632;23.440;2024-01-07T08:28:44;25.35;;;12.45;;
68178;SDS011;69812;42.632;23.440;2024-01-07T08:31:09;25.63;;;12.10;;
68178;SDS011;69812;42.632;23.440;2024-01-07T08:33:37;22.58;;;13.20;;
68178;SDS011;69812;42.632;23.440;2024-01-07T08:36:02;22.33;;;13.05;;
68178;SDS011;69812;42.632;23.440;2024-01-07T08:38:29;20.33;;;11.80;;
68178;SDS011;69812;42.632;23.440;2024-01-07T08:40:54;23.20;;;12.63;;
68178;SDS011;69812;42.632;23.440;2024-01-07T08:43:20;19.45;;;10.63;;
68178;SDS011;69812;42.632;23.440;2024-01-07T08:45:45;20.02;;;9.68;;
68178;SDS011;69812;42.632;23.440;2024-01-07T08:48:11;15.70;;;9.98;;
68178;SDS011;69812;42.632;23.440;2024-01-07T08:50:37;19.17;;;10.45;;
68178;SDS011;69812;42.632;23.440;2024-01-07T08:53:03;18.40;;;11.00;;
68178;SDS011;69812;42.632;23.440;2024-01-07T08:55:28;18.52;;;11.07;;
68178;SDS011;69812;42.632;23.440;2024-01-07T08:57:54;20.75;;;10.95;;
68178;SDS011;69812;42.632;23.440;2024-01-07T09:00:19;19.67;;;10.93;;
68178;SDS011;69812;42.632;23.440;2024-01-07T09:02:45;18.63;;;11.10;;
68178;SDS011;69812;42.632;23.440;2024-01-07T09:05:10;17.77;;;10.45;;
68178;SDS011;69812;42.632;23.440;2024-01-07T09:07:37;18.13;;;10.63;;
68178;SDS011;69812;42.632;23.440;2024-01-07T09:10:02;39.33;;;22.42;;
68178;SDS011;69812;42.632;23.440;2024-01-07T09:12:28;31.00;;;18.23;;
68178;SDS011;69812;42.632;23.440;2024-01-07T09:14:53;23.40;;;14.48;;
68178;SDS011;69812;42.632;23.440;2024-01-07T09:17:19;22.77;;;12.80;;
68178;SDS011;69812;42.632;23.440;2024-01-07T09:19:44;23.02;;;13.75;;
68178;SDS011;69812;42.632;23.440;2024-01-07T09:22:10;23.63;;;13.25;;
68178;SDS011;69812;42.632;23.440;2024-01-07T09:24:36;21.58;;;12.18;;
68178;SDS011;69812;42.632;23.440;2024-01-07T09:27:02;23.58;;;12.50;;
68178;SDS011;69812;42.632;23.440;2024-01-07T09:29:27;16.52;;;9.50;;
68178;SDS011;69812;42.632;23.440;2024-01-07T09:31:53;19.58;;;10.85;;
68178;SDS011;69812;42.632;23.440;2024-01-07T09:34:18;15.85;;;9.90;;
68178;SDS011;69812;42.632;23.440;2024-01-07T09:36:44;15.73;;;8.57;;
68178;SDS011;69812;42.632;23.440;2024-01-07T09:39:09;15.73;;;7.65;;
68178;SDS011;69812;42.632;23.440;2024-01-07T09:41:35;14.52;;;7.63;;
68178;SDS011;69812;42.632;23.440;2024-01-07T09:44:02;12.43;;;6.90;;
68178;SDS011;69812;42.632;23.440;2024-01-07T09:46:28;11.35;;;5.95;;
68178;SDS011;69812;42.632;23.440;2024-01-07T09:48:55;7.03;;;2.55;;
68178;SDS011;69812;42.632;23.440;2024-01-07T09:51:21;6.90;;;2.92;;
68178;SDS011;69812;42.632;23.440;2024-01-07T09:53:48;5.70;;;2.42;;
68178;SDS011;69812;42.632;23.440;2024-01-07T09:56:20;5.38;;;2.53;;
68178;SDS011;69812;42.632;23.440;2024-01-07T09:58:49;6.72;;;2.60;;
68178;SDS011;69812;42.632;23.440;2024-01-07T10:01:15;4.88;;;2.33;;
68178;SDS011;69812;42.632;23.440;2024-01-07T10:03:44;5.57;;;2.63;;
68178;SDS011;69812;42.632;23.440;2024-01-07T10:06:10;5.15;;;2.40;;
68178;SDS011;69812;42.632;23.440;2024-01-07T10:08:36;5.55;;;3.15;;
68178;SDS011;69812;42.632;23.440;2024-01-07T10:11:02;6.28;;;3.63;;
68178;SDS011;69812;42.632;23.440;2024-01-07T10:13:29;9.45;;;3.60;;
68178;SDS011;69812;42.632;23.440;2024-01-07T10:15:55;5.85;;;3.35;;
68178;SDS011;69812;42.632;23.440;2024-01-07T10:18:21;5.70;;;3.55;;
68178;SDS011;69812;42.632;23.440;2024-01-07T10:20:46;7.60;;;3.33;;
68178;SDS011;69812;42.632;23.440;2024-01-07T10:23:12;14.38;;;8.55;;
68178;SDS011;69812;42.632;23.440;2024-01-07T10:25:37;14.57;;;8.70;;
68178;SDS011;69812;42.632;23.440;2024-01-07T10:28:03;14.57;;;9.15;;
68178;SDS011;69812;42.632;23.440;2024-01-07T10:30:29;15.23;;;8.60;;
68178;SDS011;69812;42.632;23.440;2024-01-07T10:32:58;15.30;;;8.63;;
68178;SDS011;69812;42.632;23.440;2024-01-07T10:35:34;14.05;;;7.43;;
68178;SDS011;69812;42.632;23.440;2024-01-07T10:38:02;13.85;;;8.15;;
68178;SDS011;69812;42.632;23.440;2024-01-07T10:40:30;14.63;;;8.05;;
68178;SDS011;69812;42.632;23.440;2024-01-07T10:42:57;12.32;;;7.55;;
68178;SDS011;69812;42.632;23.440;2024-01-07T10:45:23;15.38;;;7.90;;
68178;SDS011;69812;42.632;23.440;2024-01-07T10:47:49;12.88;;;7.20;;
68178;SDS011;69812;42.632;23.440;2024-01-07T10:50:18;11.48;;;6.28;;
68178;SDS011;69812;42.632;23.440;2024-01-07T10:52:47;12.93;;;7.05;;
68178;SDS011;69812;42.632;23.440;2024-01-07T10:55:15;12.43;;;6.93;;
68178;SDS011;69812;42.632;23.440;2024-01-07T10:57:43;11.98;;;5.75;;
68178;SDS011;69812;42.632;23.440;2024-01-07T11:00:15;15.73;;;9.18;;
68178;SDS011;69812;42.632;23.440;2024-01-07T11:05:44;11.27;;;5.70;;
68178;SDS011;69812;42.632;23.440;2024-01-07T11:08:18;10.60;;;6.43;;
68178;SDS011;69812;42.632;23.440;2024-01-07T11:10:59;12.48;;;6.47;;
68178;SDS011;69812;42.632;23.440;2024-01-07T11:13:39;9.02;;;4.65;;
68178;SDS011;69812;42.632;23.440;2024-01-07T11:16:05;9.45;;;4.55;;
68178;SDS011;69812;42.632;23.440;2024-01-07T11:18:37;6.10;;;4.10;;
68178;SDS011;69812;42.632;23.440;2024-01-07T11:21:04;8.75;;;4.30;;
68178;SDS011;69812;42.632;23.440;2024-01-07T11:23:34;13.85;;;6.32;;
68178;SDS011;69812;42.632;23.440;2024-01-07T11:26:05;12.70;;;7.72;;
68178;SDS011;69812;42.632;23.440;2024-01-07T11:28:50;12.48;;;5.90;;
68178;SDS011;69812;42.632;23.440;2024-01-07T11:31:20;10.88;;;5.15;;
68178;SDS011;69812;42.632;23.440;2024-01-07T11:33:47;11.75;;;5.70;;
68178;SDS011;69812;42.632;23.440;2024-01-07T11:36:14;13.63;;;6.78;;
68178;SDS011;69812;42.632;23.440;2024-01-07T11:38:41;11.75;;;6.82;;
68178;SDS011;69812;42.632;23.440;2024-01-07T11:41:13;11.68;;;6.68;;
68178;SDS011;69812;42.632;23.440;2024-01-07T11:43:55;15.07;;;6.85;;
68178;SDS011;69812;42.632;23.440;2024-01-07T11:46:23;12.63;;;7.35;;
68178;SDS011;69812;42.632;23.440;2024-01-07T11:48:53;9.73;;;5.43;;
68178;SDS011;69812;42.632;23.440;2024-01-07T11:51:24;11.00;;;6.43;;
68178;SDS011;69812;42.632;23.440;2024-01-07T11:53:53;8.98;;;5.28;;
68178;SDS011;69812;42.632;23.440;2024-01-07T11:56:19;16.98;;;6.75;;
68178;SDS011;69812;42.632;23.440;2024-01-07T11:58:44;14.65;;;6.15;;
68178;SDS011;69812;42.632;23.440;2024-01-07T12:01:10;8.98;;;4.97;;
68178;SDS011;69812;42.632;23.440;2024-01-07T12:03:36;10.98;;;5.65;;
68178;SDS011;69812;42.632;23.440;2024-01-07T12:06:02;11.25;;;6.00;;
68178;SDS011;69812;42.632;23.440;2024-01-07T12:08:29;9.30;;;4.90;;
68178;SDS011;69812;42.632;23.440;2024-01-07T12:10:55;12.73;;;6.15;;
68178;SDS011;69812;42.632;23.440;2024-01-07T12:13:21;9.63;;;5.47;;
68178;SDS011;69812;42.632;23.440;2024-01-07T12:15:47;11.10;;;5.97;;
68178;SDS011;69812;42.632;23.440;2024-01-07T12:18:13;10.25;;;6.13;;
68178;SDS011;69812;42.632;23.440;2024-01-07T12:23:08;10.32;;;5.95;;
68178;SDS011;69812;42.632;23.440;2024-01-07T12:25:35;11.32;;;6.10;;
68178;SDS011;69812;42.632;23.440;2024-01-07T12:28:01;11.30;;;5.38;;
68178;SDS011;69812;42.632;23.440;2024-01-07T12:30:27;8.50;;;5.22;;
68178;SDS011;69812;42.632;23.440;2024-01-07T12:32:53;7.55;;;4.75;;
68178;SDS011;69812;42.632;23.440;2024-01-07T12:35:18;10.02;;;5.43;;
68178;SDS011;69812;42.632;23.440;2024-01-07T12:37:44;8.15;;;4.80;;
68178;SDS011;69812;42.632;23.440;2024-01-07T12:40:10;10.07;;;5.18;;
68178;SDS011;69812;42.632;23.440;2024-01-07T12:45:10;9.13;;;5.53;;
68178;SDS011;69812;42.632;23.440;2024-01-07T12:47:39;9.40;;;5.25;;
68178;SDS011;69812;42.632;23.440;2024-01-07T12:50:05;10.85;;;5.70;;
68178;SDS011;69812;42.632;23.440;2024-01-07T12:52:33;11.95;;;5.95;;
68178;SDS011;69812;42.632;23.440;2024-01-07T12:54:58;9.32;;;5.47;;
68178;SDS011;69812;42.632;23.440;2024-01-07T12:57:24;10.57;;;5.45;;
68178;SDS011;69812;42.632;23.440;2024-01-07T12:59:51;11.75;;;6.25;;
68178;SDS011;69812;42.632;23.440;2024-01-07T13:02:17;14.02;;;6.97;;
68178;SDS011;69812;42.632;23.440;2024-01-07T13:04:42;13.82;;;7.30;;
68178;SDS011;69812;42.632;23.440;2024-01-07T13:07:08;13.40;;;7.03;;
68178;SDS011;69812;42.632;23.440;2024-01-07T13:09:34;12.38;;;5.82;;
68178;SDS011;69812;42.632;23.440;2024-01-07T13:12:00;14.40;;;6.32;;
68178;SDS011;69812;42.632;23.440;2024-01-07T13:14:25;12.52;;;6.72;;
68178;SDS011;69812;42.632;23.440;2024-01-07T13:16:51;14.63;;;6.85;;
68178;SDS011;69812;42.632;23.440;2024-01-07T13:19:16;11.38;;;5.72;;
68178;SDS011;69812;42.632;23.440;2024-01-07T13:21:41;14.68;;;5.97;;
68178;SDS011;69812;42.632;23.440;2024-01-07T13:24:07;14.50;;;6.15;;
68178;SDS011;69812;42.632;23.440;2024-01-07T13:26:32;12.93;;;6.15;;
68178;SDS011;69812;42.632;23.440;2024-01-07T13:28:57;12.20;;;6.55;;
68178;SDS011;69812;42.632;23.440;2024-01-07T13:31:23;13.27;;;6.20;;
68178;SDS011;69812;42.632;23.440;2024-01-07T13:33:48;15.90;;;6.57;;
68178;SDS011;69812;42.632;23.440;2024-01-07T13:36:14;15.88;;;7.07;;
68178;SDS011;69812;42.632;23.440;2024-01-07T13:38:39;14.25;;;6.78;;
68178;SDS011;69812;42.632;23.440;2024-01-07T13:41:07;14.02;;;6.82;;
68178;SDS011;69812;42.632;23.440;2024-01-07T13:43:33;13.45;;;7.07;;
68178;SDS011;69812;42.632;23.440;2024-01-07T13:45:59;16.48;;;7.85;;
68178;SDS011;69812;42.632;23.440;2024-01-07T13:48:24;14.38;;;7.38;;
68178;SDS011;69812;42.632;23.440;2024-01-07T13:50:50;16.13;;;7.43;;
68178;SDS011;69812;42.632;23.440;2024-01-07T13:53:18;14.48;;;7.32;;
68178;SDS011;69812;42.632;23.440;2024-01-07T13:55:44;11.73;;;6.38;;
68178;SDS011;69812;42.632;23.440;2024-01-07T13:58:11;13.18;;;7.22;;
68178;SDS011;69812;42.632;23.440;2024-01-07T14:00:37;17.70;;;8.43;;
68178;SDS011;69812;42.632;23.440;2024-01-07T14:03:03;16.67;;;7.90;;
68178;SDS011;69812;42.632;23.440;2024-01-07T14:05:28;15.95;;;9.10;;
68178;SDS011;69812;42.632;23.440;2024-01-07T14:07:54;11.43;;;6.05;;
68178;SDS011;69812;42.632;23.440;2024-01-07T14:10:19;12.68;;;6.93;;
68178;SDS011;69812;42.632;23.440;2024-01-07T14:12:47;13.75;;;6.60;;
68178;SDS011;69812;42.632;23.440;2024-01-07T14:15:12;15.13;;;7.00;;
68178;SDS011;69812;42.632;23.440;2024-01-07T14:17:38;15.98;;;6.55;;